sensor_id;sensor_type;location;lat;lon;timestamp;P1;durP1;ratioP1;P2;durP2;ratioP2
33108;SDS011;19481;51.118;6.940;2023-05-23T00:00:20;6.65;;;4.22;;
33108;SDS011;19481;51.118;6.940;2023-05-23T00:05:22;5.20;;;4.38;;
33108;SDS011;19481;51.118;6.940;2023-05-23T00:10:25;7.32;;;4.65;;
33108;SDS011;19481;51.118;6.940;2023-05-23T00:15:28;6.13;;;4.22;;
33108;SDS011;19481;51.118;6.940;2023-05-23T00:20:30;5.30;;;4.60;;
33108;SDS011;19481;51.118;6.940;2023-05-23T00:25:33;6.78;;;5.03;;
33108;SDS011;19481;51.118;6.940;2023-05-23T00:30:36;7.10;;;4.72;;
33108;SDS011;19481;51.118;6.940;2023-05-23T00:35:38;6.72;;;4.03;;
33108;SDS011;19481;51.118;6.940;2023-05-23T00:40:40;9.60;;;4.78;;
33108;SDS011;19481;51.118;6.940;2023-05-23T00:45:43;6.13;;;4.10;;
33108;SDS011;19481;51.118;6.940;2023-05-23T00:50:44;6.90;;;4.50;;
33108;SDS011;19481;51.118;6.940;2023-05-23T00:55:46;7.90;;;4.82;;
33108;SDS011;19481;51.118;6.940;2023-05-23T01:00:49;7.97;;;4.63;;
33108;SDS011;19481;51.118;6.940;2023-05-23T01:05:53;5.60;;;4.35;;
33108;SDS011;19481;51.118;6.940;2023-05-23T01:10:55;4.90;;;3.63;;
33108;SDS011;19481;51.118;6.940;2023-05-23T01:16:04;3.85;;;3.05;;
33108;SDS011;19481;51.118;6.940;2023-05-23T01:21:11;4.80;;;2.92;;
33108;SDS011;19481;51.118;6.940;2023-05-23T01:26:20;3.67;;;2.38;;
33108;SDS011;19481;51.118;6.940;2023-05-23T01:31:32;4.95;;;3.55;;
33108;SDS011;19481;51.118;6.940;2023-05-23T01:36:38;3.33;;;3.03;;
33108;SDS011;19481;51.118;6.940;2023-05-23T01:41:40;3.83;;;2.78;;
33108;SDS011;19481;51.118;6.940;2023-05-23T01:46:44;3.50;;;3.17;;
33108;SDS011;19481;51.118;6.940;2023-05-23T01:51:47;3.55;;;2.95;;
33108;SDS011;19481;51.118;6.940;2023-05-23T01:56:49;4.55;;;2.75;;
33108;SDS011;19481;51.118;6.940;2023-05-23T02:01:52;2.45;;;2.25;;
33108;SDS011;19481;51.118;6.940;2023-05-23T02:06:54;6.00;;;2.58;;
33108;SDS011;19481;51.118;6.940;2023-05-23T02:11:55;2.30;;;2.10;;
33108;SDS011;19481;51.118;6.940;2023-05-23T02:16:59;3.78;;;2.42;;
33108;SDS011;19481;51.118;6.940;2023-05-23T02:22:01;3.42;;;2.47;;
33108;SDS011;19481;51.118;6.940;2023-05-23T02:27:03;2.65;;;2.30;;
33108;SDS011;19481;51.118;6.940;2023-05-23T02:32:07;2.85;;;2.22;;
33108;SDS011;19481;51.118;6.940;2023-05-23T02:37:09;2.88;;;2.65;;
33108;SDS011;19481;51.118;6.940;2023-05-23T02:42:10;3.45;;;2.47;;
33108;SDS011;19481;51.118;6.940;2023-05-23T02:47:13;2.53;;;2.33;;
33108;SDS011;19481;51.118;6.940;2023-05-23T02:52:15;3.35;;;2.45;;
33108;SDS011;19481;51.118;6.940;2023-05-23T02:57:17;5.75;;;2.10;;
33108;SDS011;19481;51.118;6.940;2023-05-23T03:02:19;4.80;;;2.58;;
33108;SDS011;19481;51.118;6.940;2023-05-23T03:07:21;3.70;;;2.53;;
33108;SDS011;19481;51.118;6.940;2023-05-23T03:12:23;6.38;;;2.63;;
33108;SDS011;19481;51.118;6.940;2023-05-23T03:17:26;3.97;;;2.53;;
33108;SDS011;19481;51.118;6.940;2023-05-23T03:22:27;5.88;;;2.80;;
33108;SDS011;19481;51.118;6.940;2023-05-23T03:27:29;4.07;;;2.67;;
33108;SDS011;19481;51.118;6.940;2023-05-23T03:32:32;4.97;;;2.95;;
33108;SDS011;19481;51.118;6.940;2023-05-23T03:37:34;3.83;;;3.08;;
33108;SDS011;19481;51.118;6.940;2023-05-23T03:42:35;6.40;;;2.85;;
33108;SDS011;19481;51.118;6.940;2023-05-23T03:47:40;5.15;;;2.97;;
33108;SDS011;19481;51.118;6.940;2023-05-23T03:52:41;5.18;;;3.53;;
33108;SDS011;19481;51.118;6.940;2023-05-23T03:57:43;4.22;;;2.97;;
33108;SDS011;19481;51.118;6.940;2023-05-23T04:02:46;7.38;;;3.55;;
33108;SDS011;19481;51.118;6.940;2023-05-23T04:07:49;5.40;;;3.25;;
33108;SDS011;19481;51.118;6.940;2023-05-23T04:12:51;3.30;;;2.63;;
33108;SDS011;19481;51.118;6.940;2023-05-23T04:17:54;6.13;;;3.55;;
33108;SDS011;19481;51.118;6.940;2023-05-23T04:22:57;10.88;;;3.10;;
33108;SDS011;19481;51.118;6.940;2023-05-23T04:27:58;4.82;;;3.05;;
33108;SDS011;19481;51.118;6.940;2023-05-23T04:33:02;4.82;;;3.08;;
33108;SDS011;19481;51.118;6.940;2023-05-23T04:38:05;5.38;;;3.13;;
33108;SDS011;19481;51.118;6.940;2023-05-23T04:43:07;4.25;;;3.58;;
33108;SDS011;19481;51.118;6.940;2023-05-23T04:48:14;5.22;;;3.40;;
33108;SDS011;19481;51.118;6.940;2023-05-23T04:53:17;6.95;;;3.30;;
33108;SDS011;19481;51.118;6.940;2023-05-23T04:58:18;6.65;;;3.60;;
33108;SDS011;19481;51.118;6.940;2023-05-23T05:03:21;6.72;;;3.42;;
33108;SDS011;19481;51.118;6.940;2023-05-23T05:08:24;6.43;;;3.83;;
33108;SDS011;19481;51.118;6.940;2023-05-23T05:13:27;7.35;;;3.70;;
33108;SDS011;19481;51.118;6.940;2023-05-23T05:18:30;4.30;;;3.70;;
33108;SDS011;19481;51.118;6.940;2023-05-23T05:23:32;7.53;;;4.40;;
33108;SDS011;19481;51.118;6.940;2023-05-23T05:28:33;12.07;;;4.93;;
33108;SDS011;19481;51.118;6.940;2023-05-23T05:33:36;7.32;;;4.82;;
33108;SDS011;19481;51.118;6.940;2023-05-23T05:38:38;8.18;;;4.72;;
33108;SDS011;19481;51.118;6.940;2023-05-23T05:43:40;6.65;;;4.90;;
33108;SDS011;19481;51.118;6.940;2023-05-23T05:48:42;9.55;;;5.15;;
33108;SDS011;19481;51.118;6.940;2023-05-23T05:53:44;13.25;;;4.45;;
33108;SDS011;19481;51.118;6.940;2023-05-23T05:58:46;7.90;;;4.50;;
33108;SDS011;19481;51.118;6.940;2023-05-23T06:03:49;10.70;;;4.95;;
33108;SDS011;19481;51.118;6.940;2023-05-23T06:08:50;8.65;;;5.18;;
33108;SDS011;19481;51.118;6.940;2023-05-23T06:13:52;7.25;;;5.18;;
33108;SDS011;19481;51.118;6.940;2023-05-23T06:18:55;6.55;;;4.53;;
33108;SDS011;19481;51.118;6.940;2023-05-23T06:23:57;11.57;;;5.78;;
33108;SDS011;19481;51.118;6.940;2023-05-23T06:28:58;8.38;;;5.47;;
33108;SDS011;19481;51.118;6.940;2023-05-23T06:34:01;9.23;;;5.57;;
33108;SDS011;19481;51.118;6.940;2023-05-23T06:39:03;7.90;;;5.03;;
33108;SDS011;19481;51.118;6.940;2023-05-23T06:44:04;10.75;;;4.90;;
33108;SDS011;19481;51.118;6.940;2023-05-23T06:49:08;9.20;;;4.47;;
33108;SDS011;19481;51.118;6.940;2023-05-23T06:54:09;7.13;;;4.38;;
33108;SDS011;19481;51.118;6.940;2023-05-23T06:59:11;7.18;;;4.55;;
33108;SDS011;19481;51.118;6.940;2023-05-23T07:04:14;10.15;;;5.18;;
33108;SDS011;19481;51.118;6.940;2023-05-23T07:09:15;10.60;;;5.20;;
33108;SDS011;19481;51.118;6.940;2023-05-23T07:14:17;9.95;;;5.93;;
33108;SDS011;19481;51.118;6.940;2023-05-23T07:19:21;6.78;;;4.80;;
33108;SDS011;19481;51.118;6.940;2023-05-23T07:24:22;5.53;;;4.82;;
33108;SDS011;19481;51.118;6.940;2023-05-23T07:29:24;9.80;;;3.83;;
33108;SDS011;19481;51.118;6.940;2023-05-23T07:34:27;3.75;;;3.35;;
33108;SDS011;19481;51.118;6.940;2023-05-23T07:39:29;7.03;;;4.30;;
33108;SDS011;19481;51.118;6.940;2023-05-23T07:44:31;8.57;;;4.40;;
33108;SDS011;19481;51.118;6.940;2023-05-23T07:49:35;8.02;;;5.57;;
33108;SDS011;19481;51.118;6.940;2023-05-23T07:54:36;12.52;;;5.30;;
33108;SDS011;19481;51.118;6.940;2023-05-23T07:59:38;6.55;;;4.82;;
33108;SDS011;19481;51.118;6.940;2023-05-23T08:04:41;8.18;;;4.90;;
33108;SDS011;19481;51.118;6.940;2023-05-23T08:09:44;10.85;;;5.30;;
33108;SDS011;19481;51.118;6.940;2023-05-23T08:14:45;7.78;;;5.13;;
33108;SDS011;19481;51.118;6.940;2023-05-23T08:19:48;9.60;;;5.10;;
33108;SDS011;19481;51.118;6.940;2023-05-23T08:24:50;10.93;;;5.13;;
33108;SDS011;19481;51.118;6.940;2023-05-23T08:29:52;11.82;;;5.47;;
33108;SDS011;19481;51.118;6.940;2023-05-23T08:34:56;11.43;;;5.18;;
33108;SDS011;19481;51.118;6.940;2023-05-23T08:39:57;9.90;;;4.95;;
33108;SDS011;19481;51.118;6.940;2023-05-23T08:44:59;11.35;;;5.95;;
33108;SDS011;19481;51.118;6.940;2023-05-23T08:50:02;9.20;;;5.05;;
33108;SDS011;19481;51.118;6.940;2023-05-23T08:55:07;9.57;;;5.80;;
33108;SDS011;19481;51.118;6.940;2023-05-23T09:00:11;7.22;;;4.80;;
33108;SDS011;19481;51.118;6.940;2023-05-23T09:05:15;9.38;;;5.68;;
33108;SDS011;19481;51.118;6.940;2023-05-23T09:10:17;11.15;;;5.88;;
33108;SDS011;19481;51.118;6.940;2023-05-23T09:15:20;11.52;;;6.13;;
33108;SDS011;19481;51.118;6.940;2023-05-23T09:20:24;9.48;;;5.60;;
33108;SDS011;19481;51.118;6.940;2023-05-23T09:25:25;9.02;;;6.07;;
33108;SDS011;19481;51.118;6.940;2023-05-23T09:30:27;8.57;;;5.05;;
33108;SDS011;19481;51.118;6.940;2023-05-23T09:35:35;14.13;;;8.65;;
33108;SDS011;19481;51.118;6.940;2023-05-23T09:40:44;12.32;;;7.50;;
33108;SDS011;19481;51.118;6.940;2023-05-23T09:45:46;13.75;;;6.03;;
33108;SDS011;19481;51.118;6.940;2023-05-23T09:50:49;8.85;;;5.93;;
33108;SDS011;19481;51.118;6.940;2023-05-23T09:55:51;13.68;;;6.00;;
33108;SDS011;19481;51.118;6.940;2023-05-23T10:00:54;9.50;;;5.35;;
33108;SDS011;19481;51.118;6.940;2023-05-23T10:06:02;11.50;;;6.28;;
33108;SDS011;19481;51.118;6.940;2023-05-23T10:16:52;12.82;;;6.78;;
33108;SDS011;19481;51.118;6.940;2023-05-23T10:22:00;13.20;;;6.93;;
33108;SDS011;19481;51.118;6.940;2023-05-23T10:27:06;15.02;;;9.10;;
33108;SDS011;19481;51.118;6.940;2023-05-23T10:32:08;19.60;;;11.00;;
33108;SDS011;19481;51.118;6.940;2023-05-23T10:37:15;17.27;;;11.25;;
33108;SDS011;19481;51.118;6.940;2023-05-23T10:42:21;16.08;;;9.63;;
33108;SDS011;19481;51.118;6.940;2023-05-23T10:47:33;23.58;;;13.07;;
33108;SDS011;19481;51.118;6.940;2023-05-23T10:52:39;29.83;;;13.98;;
33108;SDS011;19481;51.118;6.940;2023-05-23T10:57:41;25.98;;;13.93;;
33108;SDS011;19481;51.118;6.940;2023-05-23T11:02:52;24.80;;;11.52;;
33108;SDS011;19481;51.118;6.940;2023-05-23T11:08:09;14.73;;;8.20;;
33108;SDS011;19481;51.118;6.940;2023-05-23T11:13:12;24.33;;;11.13;;
33108;SDS011;19481;51.118;6.940;2023-05-23T11:18:21;20.60;;;11.95;;
33108;SDS011;19481;51.118;6.940;2023-05-23T11:23:28;13.15;;;9.30;;
33108;SDS011;19481;51.118;6.940;2023-05-23T11:28:54;17.33;;;8.30;;
33108;SDS011;19481;51.118;6.940;2023-05-23T11:33:55;11.15;;;6.93;;
33108;SDS011;19481;51.118;6.940;2023-05-23T11:39:01;11.13;;;5.00;;
33108;SDS011;19481;51.118;6.940;2023-05-23T11:44:09;13.88;;;6.25;;
33108;SDS011;19481;51.118;6.940;2023-05-23T11:49:12;11.20;;;5.75;;
33108;SDS011;19481;51.118;6.940;2023-05-23T11:54:15;9.30;;;5.47;;
33108;SDS011;19481;51.118;6.940;2023-05-23T11:59:16;14.30;;;6.45;;
33108;SDS011;19481;51.118;6.940;2023-05-23T12:04:18;16.02;;;8.00;;
33108;SDS011;19481;51.118;6.940;2023-05-23T12:09:21;9.57;;;5.47;;
33108;SDS011;19481;51.118;6.940;2023-05-23T12:14:23;8.90;;;5.22;;
33108;SDS011;19481;51.118;6.940;2023-05-23T12:19:29;12.15;;;5.65;;
33108;SDS011;19481;51.118;6.940;2023-05-23T12:24:32;8.32;;;5.13;;
33108;SDS011;19481;51.118;6.940;2023-05-23T12:29:34;7.95;;;4.45;;
33108;SDS011;19481;51.118;6.940;2023-05-23T12:34:39;6.65;;;4.68;;
33108;SDS011;19481;51.118;6.940;2023-05-23T12:39:43;6.90;;;4.07;;
33108;SDS011;19481;51.118;6.940;2023-05-23T12:44:45;9.05;;;5.07;;
33108;SDS011;19481;51.118;6.940;2023-05-23T12:49:51;7.50;;;4.53;;
33108;SDS011;19481;51.118;6.940;2023-05-23T12:54:54;6.10;;;3.70;;
33108;SDS011;19481;51.118;6.940;2023-05-23T12:59:56;9.50;;;2.70;;
33108;SDS011;19481;51.118;6.940;2023-05-23T13:04:57;7.07;;;4.35;;
33108;SDS011;19481;51.118;6.940;2023-05-23T13:10:00;11.63;;;4.28;;
33108;SDS011;19481;51.118;6.940;2023-05-23T13:15:03;10.77;;;4.50;;
33108;SDS011;19481;51.118;6.940;2023-05-23T13:20:06;6.47;;;3.65;;
33108;SDS011;19481;51.118;6.940;2023-05-23T13:25:10;8.60;;;5.28;;
33108;SDS011;19481;51.118;6.940;2023-05-23T13:30:12;9.27;;;5.72;;
33108;SDS011;19481;51.118;6.940;2023-05-23T13:35:14;6.15;;;4.88;;
33108;SDS011;19481;51.118;6.940;2023-05-23T13:40:18;11.65;;;4.38;;
33108;SDS011;19481;51.118;6.940;2023-05-23T13:45:21;6.28;;;4.40;;
33108;SDS011;19481;51.118;6.940;2023-05-23T13:50:22;8.93;;;4.85;;
33108;SDS011;19481;51.118;6.940;2023-05-23T13:55:25;7.47;;;5.13;;
33108;SDS011;19481;51.118;6.940;2023-05-23T14:00:27;8.93;;;4.55;;
33108;SDS011;19481;51.118;6.940;2023-05-23T14:05:29;9.80;;;4.53;;
33108;SDS011;19481;51.118;6.940;2023-05-23T14:10:32;15.88;;;4.20;;
33108;SDS011;19481;51.118;6.940;2023-05-23T14:15:34;9.15;;;4.05;;
33108;SDS011;19481;51.118;6.940;2023-05-23T14:20:37;11.70;;;3.60;;
33108;SDS011;19481;51.118;6.940;2023-05-23T14:25:40;8.40;;;3.70;;
33108;SDS011;19481;51.118;6.940;2023-05-23T14:30:45;6.50;;;4.07;;
33108;SDS011;19481;51.118;6.940;2023-05-23T14:35:46;11.40;;;5.28;;
33108;SDS011;19481;51.118;6.940;2023-05-23T14:40:50;9.07;;;4.95;;
33108;SDS011;19481;51.118;6.940;2023-05-23T14:45:53;7.25;;;4.82;;
33108;SDS011;19481;51.118;6.940;2023-05-23T14:50:55;6.45;;;4.65;;
33108;SDS011;19481;51.118;6.940;2023-05-23T14:56:02;11.35;;;4.47;;
33108;SDS011;19481;51.118;6.940;2023-05-23T15:01:03;10.63;;;4.50;;
33108;SDS011;19481;51.118;6.940;2023-05-23T15:06:05;6.68;;;3.45;;
33108;SDS011;19481;51.118;6.940;2023-05-23T15:11:08;8.98;;;2.67;;
33108;SDS011;19481;51.118;6.940;2023-05-23T15:16:10;5.95;;;2.97;;
33108;SDS011;19481;51.118;6.940;2023-05-23T15:21:12;12.77;;;2.90;;
33108;SDS011;19481;51.118;6.940;2023-05-23T15:26:14;8.68;;;2.63;;
33108;SDS011;19481;51.118;6.940;2023-05-23T15:31:16;7.55;;;2.72;;
33108;SDS011;19481;51.118;6.940;2023-05-23T15:36:18;7.82;;;3.90;;
33108;SDS011;19481;51.118;6.940;2023-05-23T15:41:21;15.02;;;4.97;;
33108;SDS011;19481;51.118;6.940;2023-05-23T15:46:22;8.55;;;3.38;;
33108;SDS011;19481;51.118;6.940;2023-05-23T15:51:24;6.20;;;3.45;;
33108;SDS011;19481;51.118;6.940;2023-05-23T15:56:27;4.57;;;2.67;;
33108;SDS011;19481;51.118;6.940;2023-05-23T16:01:28;6.05;;;2.67;;
33108;SDS011;19481;51.118;6.940;2023-05-23T16:06:32;6.45;;;2.50;;
33108;SDS011;19481;51.118;6.940;2023-05-23T16:11:34;7.32;;;2.80;;
33108;SDS011;19481;51.118;6.940;2023-05-23T16:16:36;8.75;;;2.80;;
33108;SDS011;19481;51.118;6.940;2023-05-23T16:21:37;12.65;;;3.42;;
33108;SDS011;19481;51.118;6.940;2023-05-23T16:26:41;10.55;;;3.47;;
33108;SDS011;19481;51.118;6.940;2023-05-23T16:31:42;5.80;;;2.03;;
33108;SDS011;19481;51.118;6.940;2023-05-23T16:36:44;5.90;;;2.17;;
33108;SDS011;19481;51.118;6.940;2023-05-23T16:41:47;7.43;;;1.88;;
33108;SDS011;19481;51.118;6.940;2023-05-23T16:46:49;2.97;;;1.80;;
33108;SDS011;19481;51.118;6.940;2023-05-23T16:51:50;4.78;;;1.50;;
33108;SDS011;19481;51.118;6.940;2023-05-23T16:56:53;5.75;;;1.80;;
33108;SDS011;19481;51.118;6.940;2023-05-23T17:01:56;4.20;;;1.85;;
33108;SDS011;19481;51.118;6.940;2023-05-23T17:06:58;5.30;;;1.83;;
33108;SDS011;19481;51.118;6.940;2023-05-23T17:12:01;10.20;;;2.10;;
33108;SDS011;19481;51.118;6.940;2023-05-23T17:17:03;12.10;;;3.42;;
33108;SDS011;19481;51.118;6.940;2023-05-23T17:22:05;11.65;;;2.40;;
33108;SDS011;19481;51.118;6.940;2023-05-23T17:27:08;8.27;;;2.25;;
33108;SDS011;19481;51.118;6.940;2023-05-23T17:32:10;7.05;;;2.03;;
33108;SDS011;19481;51.118;6.940;2023-05-23T17:37:11;9.80;;;2.35;;
33108;SDS011;19481;51.118;6.940;2023-05-23T17:42:15;4.68;;;2.28;;
33108;SDS011;19481;51.118;6.940;2023-05-23T17:47:17;9.73;;;2.03;;
33108;SDS011;19481;51.118;6.940;2023-05-23T17:52:18;6.60;;;2.10;;
33108;SDS011;19481;51.118;6.940;2023-05-23T17:57:21;7.13;;;1.60;;
33108;SDS011;19481;51.118;6.940;2023-05-23T18:02:23;3.70;;;1.60;;
33108;SDS011;19481;51.118;6.940;2023-05-23T18:07:25;5.10;;;1.67;;
33108;SDS011;19481;51.118;6.940;2023-05-23T18:12:28;7.03;;;1.65;;
33108;SDS011;19481;51.118;6.940;2023-05-23T18:17:30;7.75;;;1.52;;
33108;SDS011;19481;51.118;6.940;2023-05-23T18:22:31;4.22;;;1.73;;
33108;SDS011;19481;51.118;6.940;2023-05-23T18:27:34;4.32;;;1.75;;
33108;SDS011;19481;51.118;6.940;2023-05-23T18:32:36;4.88;;;1.50;;
33108;SDS011;19481;51.118;6.940;2023-05-23T18:37:37;7.38;;;2.10;;
33108;SDS011;19481;51.118;6.940;2023-05-23T18:42:40;9.88;;;1.90;;
33108;SDS011;19481;51.118;6.940;2023-05-23T18:47:42;7.28;;;1.60;;
33108;SDS011;19481;51.118;6.940;2023-05-23T18:52:44;8.65;;;1.65;;
33108;SDS011;19481;51.118;6.940;2023-05-23T18:57:47;7.95;;;1.50;;
33108;SDS011;19481;51.118;6.940;2023-05-23T19:02:48;8.35;;;1.52;;
33108;SDS011;19481;51.118;6.940;2023-05-23T19:07:50;6.50;;;1.55;;
33108;SDS011;19481;51.118;6.940;2023-05-23T19:12:53;8.25;;;1.73;;
33108;SDS011;19481;51.118;6.940;2023-05-23T19:17:55;7.85;;;1.45;;
33108;SDS011;19481;51.118;6.940;2023-05-23T19:22:56;10.10;;;1.55;;
33108;SDS011;19481;51.118;6.940;2023-05-23T19:27:59;5.93;;;1.42;;
33108;SDS011;19481;51.118;6.940;2023-05-23T19:33:01;6.25;;;1.67;;
33108;SDS011;19481;51.118;6.940;2023-05-23T19:38:02;2.50;;;1.48;;
33108;SDS011;19481;51.118;6.940;2023-05-23T19:43:05;2.92;;;1.15;;
33108;SDS011;19481;51.118;6.940;2023-05-23T19:48:07;10.40;;;2.10;;
33108;SDS011;19481;51.118;6.940;2023-05-23T19:53:08;3.95;;;1.55;;
33108;SDS011;19481;51.118;6.940;2023-05-23T19:58:11;6.75;;;1.50;;
33108;SDS011;19481;51.118;6.940;2023-05-23T20:03:13;5.88;;;1.50;;
33108;SDS011;19481;51.118;6.940;2023-05-23T20:08:14;6.82;;;1.98;;
33108;SDS011;19481;51.118;6.940;2023-05-23T20:13:18;3.95;;;1.65;;
33108;SDS011;19481;51.118;6.940;2023-05-23T20:18:20;3.58;;;1.48;;
33108;SDS011;19481;51.118;6.940;2023-05-23T20:23:22;9.10;;;2.08;;
33108;SDS011;19481;51.118;6.940;2023-05-23T20:28:25;3.95;;;1.50;;
33108;SDS011;19481;51.118;6.940;2023-05-23T20:33:27;8.80;;;1.52;;
33108;SDS011;19481;51.118;6.940;2023-05-23T20:38:28;4.13;;;1.42;;
33108;SDS011;19481;51.118;6.940;2023-05-23T20:43:34;7.78;;;1.77;;
33108;SDS011;19481;51.118;6.940;2023-05-23T20:48:37;4.55;;;2.05;;
33108;SDS011;19481;51.118;6.940;2023-05-23T20:53:38;11.40;;;2.03;;
33108;SDS011;19481;51.118;6.940;2023-05-23T20:58:41;5.40;;;1.50;;
33108;SDS011;19481;51.118;6.940;2023-05-23T21:03:44;7.07;;;1.52;;
33108;SDS011;19481;51.118;6.940;2023-05-23T21:08:46;9.30;;;1.70;;
33108;SDS011;19481;51.118;6.940;2023-05-23T21:13:49;9.48;;;2.00;;
33108;SDS011;19481;51.118;6.940;2023-05-23T21:18:50;9.73;;;1.48;;
33108;SDS011;19481;51.118;6.940;2023-05-23T21:23:52;13.30;;;1.50;;
33108;SDS011;19481;51.118;6.940;2023-05-23T21:28:55;8.60;;;1.50;;
33108;SDS011;19481;51.118;6.940;2023-05-23T21:33:56;2.53;;;1.27;;
33108;SDS011;19481;51.118;6.940;2023-05-23T21:38:58;2.85;;;1.73;;
33108;SDS011;19481;51.118;6.940;2023-05-23T21:44:02;1.92;;;1.50;;
33108;SDS011;19481;51.118;6.940;2023-05-23T21:49:03;5.13;;;1.70;;
33108;SDS011;19481;51.118;6.940;2023-05-23T21:54:05;8.85;;;1.60;;
33108;SDS011;19481;51.118;6.940;2023-05-23T21:59:08;7.55;;;1.48;;
33108;SDS011;19481;51.118;6.940;2023-05-23T22:04:10;5.20;;;1.90;;
33108;SDS011;19481;51.118;6.940;2023-05-23T22:09:12;8.30;;;1.67;;
33108;SDS011;19481;51.118;6.940;2023-05-23T22:14:15;7.00;;;1.50;;
33108;SDS011;19481;51.118;6.940;2023-05-23T22:19:17;6.35;;;1.55;;
33108;SDS011;19481;51.118;6.940;2023-05-23T22:24:20;3.38;;;1.40;;
33108;SDS011;19481;51.118;6.940;2023-05-23T22:29:23;8.30;;;1.67;;
33108;SDS011;19481;51.118;6.940;2023-05-23T22:34:24;2.63;;;1.27;;
33108;SDS011;19481;51.118;6.940;2023-05-23T22:39:26;9.85;;;1.60;;
33108;SDS011;19481;51.118;6.940;2023-05-23T22:44:29;2.88;;;1.20;;
33108;SDS011;19481;51.118;6.940;2023-05-23T22:49:30;4.30;;;1.85;;
33108;SDS011;19481;51.118;6.940;2023-05-23T22:54:32;3.72;;;1.65;;
33108;SDS011;19481;51.118;6.940;2023-05-23T22:59:35;6.05;;;1.80;;
33108;SDS011;19481;51.118;6.940;2023-05-23T23:04:37;4.82;;;1.65;;
33108;SDS011;19481;51.118;6.940;2023-05-23T23:09:40;7.68;;;1.63;;
33108;SDS011;19481;51.118;6.940;2023-05-23T23:14:43;4.00;;;1.60;;
33108;SDS011;19481;51.118;6.940;2023-05-23T23:19:45;3.72;;;1.48;;
33108;SDS011;19481;51.118;6.940;2023-05-23T23:24:48;6.72;;;1.30;;
33108;SDS011;19481;51.118;6.940;2023-05-23T23:29:51;5.72;;;2.58;;
33108;SDS011;19481;51.118;6.940;2023-05-23T23:34:52;9.80;;;1.58;;
33108;SDS011;19481;51.118;6.940;2023-05-23T23:39:54;5.60;;;1.50;;
33108;SDS011;19481;51.118;6.940;2023-05-23T23:44:57;2.10;;;1.38;;
33108;SDS011;19481;51.118;6.940;2023-05-23T23:49:59;4.82;;;1.42;;
33108;SDS011;19481;51.118;6.940;2023-05-23T23:55:01;3.55;;;1.50;;
